Time;durP1;ratioP1;P1;durP2;ratioP2;P2;SDS_P1;SDS_P2;PMS_P1;PMS_P2;Temp;Humidity;BMP_temperature;BMP_pressure;BME280_temperature;BME280_humidity;BME280_pressure;Samples;Min_cycle;Max_cycle;Signal;HPM_P1;HPM_P2
2022/01/10 00:00:01;;;;;;;14.15;6.53;;;;;;;0.88;95.73;101089.31;5093339;28;20031;-74
2022/01/10 00:02:27;;;;;;;19.08;6.30;;;;;;;0.86;95.93;101087.84;5093751;28;20390;-74
2022/01/10 00:04:52;;;;;;;19.25;6.75;;;;;;;0.81;95.66;101083.00;5092614;28;20032;-74
2022/01/10 00:07:17;;;;;;;12.85;6.88;;;;;;;0.81;95.80;101095.38;5093061;28;20044;-73
2022/01/10 00:09:43;;;;;;;18.02;6.70;;;;;;;0.79;95.49;101097.38;5084420;28;20040;-74
2022/01/10 00:12:10;;;;;;;22.25;6.55;;;;;;;0.76;95.50;101100.34;5072738;28;20032;-74
2022/01/10 00:14:36;;;;;;;16.35;6.95;;;;;;;0.73;96.16;101111.22;5073355;28;20036;-73
2022/01/10 00:17:03;;;;;;;15.98;8.07;;;;;;;0.73;96.16;101105.91;5091852;28;20044;-74
2022/01/10 00:19:29;;;;;;;17.73;6.63;;;;;;;0.69;95.90;101117.78;5093144;28;20088;-75
2022/01/10 00:21:55;;;;;;;15.90;6.60;;;;;;;0.65;96.04;101116.44;5092996;28;20044;-75
2022/01/10 00:24:21;;;;;;;14.18;6.88;;;;;;;0.62;96.44;101111.47;5093379;28;20552;-74
2022/01/10 00:26:46;;;;;;;14.32;7.03;;;;;;;0.60;96.72;101114.28;5093450;28;20062;-73
2022/01/10 00:29:12;;;;;;;18.80;8.75;;;;;;;0.60;96.38;101110.78;5093333;28;20028;-75
2022/01/10 00:31:37;;;;;;;26.13;8.05;;;;;;;0.59;96.20;101109.16;5093163;28;20040;-74
2022/01/10 00:34:02;;;;;;;23.15;7.22;;;;;;;0.56;96.56;101123.50;5092751;28;20124;-74
2022/01/10 00:36:28;;;;;;;18.80;8.50;;;;;;;0.55;96.79;101135.03;5092320;28;20040;-76
2022/01/10 00:38:53;;;;;;;18.08;7.97;;;;;;;0.52;96.20;101138.00;5074346;28;20131;-74
2022/01/10 00:41:18;;;;;;;19.63;8.27;;;;;;;0.52;96.23;101135.38;5092985;28;20044;-74
2022/01/10 00:43:46;;;;;;;24.52;9.32;;;;;;;0.51;96.87;101140.81;5093027;28;20486;-75
2022/01/10 00:46:12;;;;;;;18.20;8.23;;;;;;;0.49;97.02;101150.72;5092754;28;20040;-74
2022/01/10 00:48:38;;;;;;;20.37;8.33;;;;;;;0.47;97.08;101156.13;5092596;28;20036;-75
2022/01/10 00:51:03;;;;;;;28.13;9.50;;;;;;;0.42;97.05;101165.50;5092329;28;20098;-75
2022/01/10 00:53:29;;;;;;;24.83;8.77;;;;;;;0.38;97.15;101167.63;5093077;28;20039;-75
2022/01/10 00:55:54;;;;;;;21.00;8.73;;;;;;;0.36;96.92;101171.38;5092863;28;20036;-74
2022/01/10 00:58:20;;;;;;;19.00;8.70;;;;;;;0.32;96.50;101173.50;5092415;28;20044;-74
2022/01/10 01:00:45;;;;;;;22.85;8.32;;;;;;;0.30;96.48;101187.84;5092179;28;20032;-74
2022/01/10 01:03:10;;;;;;;18.92;8.80;;;;;;;0.23;96.98;101179.72;5092659;28;20094;-74
2022/01/10 01:05:40;;;;;;;19.23;8.32;;;;;;;0.21;97.19;101186.97;5092668;28;20036;-73
2022/01/10 01:08:08;;;;;;;13.80;8.65;;;;;;;0.19;97.11;101196.84;5092180;28;20447;-74
2022/01/10 01:19:02;;;;;;;26.13;8.52;;;;;;;0.10;96.94;101212.75;5092186;28;20646;-74
2022/01/10 01:24:08;;;;;;;26.57;9.50;;;;;;;0.01;96.93;101214.47;5092577;28;20063;-74
2022/01/10 01:26:39;;;;;;;24.45;9.18;;;;;;;0.02;97.27;101210.84;5092963;28;20056;-74
2022/01/10 01:29:05;;;;;;;;;;;;;;;0.04;97.20;101213.34;5074448;28;20040;-75
2022/01/10 01:31:31;;;;;;;19.03;8.73;;;;;;;0.10;96.83;101224.13;5092305;28;19927;-74
2022/01/10 01:33:56;;;;;;;22.30;9.33;;;;;;;0.11;97.22;101228.47;5091879;28;20564;-74
2022/01/10 01:36:24;;;;;;;26.50;10.23;;;;;;;0.07;97.30;101231.53;5092328;28;20119;-74
2022/01/10 01:38:51;;;;;;;27.73;10.50;;;;;;;0.05;97.25;101241.41;5092085;28;20047;-75
2022/01/10 01:43:43;;;;;;;18.17;10.53;;;;;;;-0.02;97.30;101255.22;5092227;28;20105;-73
2022/01/10 01:46:09;;;;;;;31.30;10.75;;;;;;;-0.07;97.07;101252.19;5091924;28;20036;-72
2022/01/10 01:48:35;;;;;;;19.90;9.70;;;;;;;-0.10;96.72;101259.59;5093370;28;20035;-74
2022/01/10 01:51:01;;;;;;;27.75;10.63;;;;;;;-0.12;96.90;101274.75;5094329;28;20376;-74
2022/01/10 01:53:27;;;;;;;26.63;9.85;;;;;;;-0.18;97.08;101270.84;5096540;28;20024;-73
2022/01/10 01:55:52;;;;;;;19.58;10.73;;;;;;;-0.19;97.54;101265.72;5077059;28;20084;-73
2022/01/10 01:58:18;;;;;;;22.67;10.27;;;;;;;-0.18;97.34;101268.22;5095846;28;20135;-75
2022/01/10 02:00:43;;;;;;;27.40;11.57;;;;;;;-0.15;97.19;101282.94;5095577;28;20505;-73
2022/01/10 02:03:09;;;;;;;22.23;11.07;;;;;;;-0.16;97.17;101284.75;5095325;28;20036;-74
2022/01/10 02:05:34;;;;;;;27.67;11.20;;;;;;;-0.16;97.75;101295.31;5096319;28;20067;-75
2022/01/10 02:08:00;;;;;;;22.98;12.35;;;;;;;-0.19;97.35;101297.41;5094734;28;20036;-74
2022/01/10 02:10:25;;;;;;;25.00;12.37;;;;;;;-0.19;97.18;101298.25;5095355;28;20487;-73
2022/01/10 02:12:51;;;;;;;25.07;11.80;;;;;;;-0.18;97.15;101299.91;5095777;28;20032;-73
2022/01/10 02:15:33;;;;;;;24.83;11.80;;;;;;;-0.17;97.54;101308.66;5095520;28;20036;-74
2022/01/10 02:18:00;;;;;;;29.57;11.23;;;;;;;-0.18;97.81;101314.94;5095466;28;20027;-73
2022/01/10 02:20:31;;;;;;;22.53;11.70;;;;;;;-0.21;97.02;101307.28;5095743;28;20048;-73
2022/01/10 02:22:56;;;;;;;25.50;12.00;;;;;;;-0.24;96.96;101312.88;5095328;28;20031;-73
2022/01/10 02:25:22;;;;;;;22.02;12.98;;;;;;;-0.23;97.48;101317.16;5095555;28;20036;-73
2022/01/10 02:27:48;;;;;;;32.93;13.23;;;;;;;-0.21;97.66;101318.69;5095433;28;20028;-73
2022/01/10 02:30:13;;;;;;;35.67;13.70;;;;;;;-0.18;97.34;101328.94;5095163;28;20115;-73
2022/01/10 02:32:39;;;;;;;28.80;13.07;;;;;;;-0.15;98.08;101328.69;5095592;28;20035;-74
2022/01/10 02:35:05;;;;;;;29.33;13.70;;;;;;;-0.15;97.91;101341.03;5095187;28;20111;-73
2022/01/10 02:37:30;;;;;;;25.50;12.30;;;;;;;-0.17;97.21;101343.00;5095282;28;20047;-73
2022/01/10 02:39:55;;;;;;;28.40;12.63;;;;;;;-0.19;98.11;101356.34;5094997;28;20036;-73
2022/01/10 02:42:20;;;;;;;35.67;13.53;;;;;;;-0.21;97.78;101358.28;5094988;28;20138;-73
2022/01/10 02:44:46;;;;;;;27.33;13.37;;;;;;;-0.23;97.48;101354.13;5095045;28;20028;-73
2022/01/10 02:47:11;;;;;;;30.77;12.63;;;;;;;-0.24;97.31;101360.41;5095456;28;20096;-73
2022/01/10 02:49:37;;;;;;;23.10;13.23;;;;;;;-0.26;97.75;101368.47;5094665;28;20040;-74
2022/01/10 02:52:03;;;;;;;27.40;14.70;;;;;;;-0.26;97.90;101372.91;5095029;28;20430;-73
2022/01/10 02:54:29;;;;;;;44.50;12.90;;;;;;;-0.25;97.55;101375.41;5094661;28;20029;-74
2022/01/10 02:56:56;;;;;;;27.10;13.00;;;;;;;-0.27;97.81;101374.72;5094863;28;20412;-73
2022/01/10 02:59:23;;;;;;;17.00;11.40;;;;;;;-0.31;97.87;101383.03;5094770;28;20063;-73
2022/01/10 03:01:50;;;;;;;16.80;11.80;;;;;;;-0.31;97.94;101390.97;5094546;28;20499;-74
2022/01/10 03:04:16;;;;;;;18.80;11.87;;;;;;;-0.35;97.80;101403.63;5060011;28;20039;-72
2022/01/10 03:06:43;;;;;;;22.47;12.63;;;;;;;-0.37;97.44;101404.72;5094654;28;20559;-73
2022/01/10 03:09:09;;;;;;;30.50;13.93;;;;;;;-0.38;98.10;101401.28;5094026;28;20055;-74
2022/01/10 03:11:37;;;;;;;25.73;12.03;;;;;;;-0.38;97.81;101411.84;5094743;28;20043;-73
2022/01/10 03:14:03;;;;;;;25.30;12.93;;;;;;;-0.38;98.18;101417.13;5094407;28;20036;-74
2022/01/10 03:16:29;;;;;;;29.13;12.60;;;;;;;-0.40;98.06;101419.06;5076293;28;20047;-74
2022/01/10 03:18:54;;;;;;;31.00;13.30;;;;;;;-0.40;97.73;101418.22;5094108;28;20040;-73
2022/01/10 03:21:20;;;;;;;32.77;14.43;;;;;;;-0.44;97.62;101419.47;5094394;28;20032;-74
2022/01/10 03:23:51;;;;;;;23.60;13.37;;;;;;;-0.45;97.79;101420.47;5094710;28;20032;-74
2022/01/10 03:26:17;;;;;;;25.60;12.18;;;;;;;-0.42;97.93;101423.66;5094944;28;20467;-73
2022/01/10 03:28:42;;;;;;;31.83;13.47;;;;;;;-0.40;98.03;101421.69;5094335;28;20325;-74
2022/01/10 03:31:08;;;;;;;28.47;13.40;;;;;;;-0.41;98.08;101430.56;5093957;28;20043;-74
2022/01/10 03:33:33;;;;;;;27.90;13.50;;;;;;;-0.36;98.06;101438.94;5093920;28;20440;-74
2022/01/10 03:35:59;;;;;;;28.70;14.70;;;;;;;-0.34;98.42;101436.16;5094331;28;20520;-73
2022/01/10 03:38:24;;;;;;;25.30;13.40;;;;;;;-0.35;98.24;101440.59;5094455;28;20127;-74
2022/01/10 03:40:49;;;;;;;24.67;13.27;;;;;;;-0.36;98.07;101453.94;5093691;28;20514;-74
2022/01/10 03:43:15;;;;;;;22.77;13.03;;;;;;;-0.38;97.82;101456.72;5075312;28;20522;-74
2022/01/10 03:45:40;;;;;;;21.67;12.53;;;;;;;-0.42;98.40;101455.31;5093919;28;20032;-74
2022/01/10 03:48:06;;;;;;;26.00;13.90;;;;;;;-0.44;98.36;101472.28;5093690;28;20036;-75
2022/01/10 03:50:31;;;;;;;22.40;12.33;;;;;;;-0.47;98.23;101460.16;5094289;28;20027;-75
2022/01/10 03:52:57;;;;;;;26.33;14.10;;;;;;;-0.45;98.53;101471.44;5093421;28;20556;-73
2022/01/10 03:55:24;;;;;;;25.33;13.57;;;;;;;-0.44;98.36;101470.47;5093413;28;20530;-73
2022/01/10 03:57:49;;;;;;;27.83;13.20;;;;;;;-0.46;98.57;101482.97;5093339;28;20450;-73
2022/01/10 04:00:15;;;;;;;20.57;12.70;;;;;;;-0.49;98.27;101479.78;5093238;28;20054;-74
2022/01/10 04:02:45;;;;;;;22.40;13.13;;;;;;;-0.51;98.29;101489.66;5093748;28;20046;-75
2022/01/10 04:05:10;;;;;;;29.87;13.40;;;;;;;-0.55;98.50;101499.63;5093547;28;20135;-75
2022/01/10 04:07:37;;;;;;;20.93;13.53;;;;;;;-0.59;98.23;101498.22;5093580;28;20123;-74
2022/01/10 04:10:04;;;;;;;29.00;13.73;;;;;;;-0.62;98.43;101506.44;5074907;28;20470;-74
2022/01/10 04:12:29;;;;;;;18.70;12.93;;;;;;;-0.62;98.24;101508.22;5092592;28;20028;-73
2022/01/10 04:14:55;;;;;;;16.77;12.50;;;;;;;-0.65;98.51;101513.78;5093243;28;20085;-73
2022/01/10 04:17:20;;;;;;;25.20;13.40;;;;;;;-0.68;98.51;101509.63;5094014;28;20094;-73
2022/01/10 04:19:46;;;;;;;25.63;14.20;;;;;;;-0.68;98.49;101514.03;5092771;28;20046;-74
2022/01/10 04:22:11;;;;;;;26.17;13.40;;;;;;;-0.70;98.38;101524.75;5093327;28;20482;-75
2022/01/10 04:24:37;;;;;;;34.20;14.67;;;;;;;-0.70;98.43;101530.03;5093019;28;20039;-74
2022/01/10 04:27:03;;;;;;;24.13;13.83;;;;;;;-0.70;98.38;101534.47;5093010;28;20491;-74
2022/01/10 04:29:28;;;;;;;20.20;12.90;;;;;;;-0.73;98.41;101535.59;5093736;28;20024;-75
2022/01/10 04:31:53;;;;;;;31.67;14.33;;;;;;;-0.75;98.33;101541.97;5093162;28;20596;-74
2022/01/10 04:34:19;;;;;;;22.07;14.80;;;;;;;-0.74;98.47;101547.09;5074587;28;20040;-74
2022/01/10 04:36:44;;;;;;;24.13;13.47;;;;;;;-0.74;98.47;101557.66;5092854;28;20036;-74
2022/01/10 04:39:10;;;;;;;27.73;14.67;;;;;;;-0.74;98.41;101555.00;5092748;28;20067;-73
2022/01/10 04:41:37;;;;;;;21.27;13.97;;;;;;;-0.74;98.54;101556.81;5093267;28;20052;-74
2022/01/10 04:44:03;;;;;;;27.27;15.23;;;;;;;-0.76;98.39;101570.13;5074783;28;20560;-74
2022/01/10 04:46:29;;;;;;;28.23;13.63;;;;;;;-0.77;98.55;101575.56;5092678;28;20127;-74
2022/01/10 04:48:54;;;;;;;38.63;15.97;;;;;;;-0.79;98.52;101580.13;5092339;28;20557;-74
2022/01/10 04:51:20;;;;;;;24.23;14.33;;;;;;;-0.82;98.33;101580.38;5092763;28;20119;-74
2022/01/10 04:53:49;;;;;;;24.33;12.73;;;;;;;-0.84;98.55;101584.97;5092863;28;20039;-73
2022/01/10 04:56:17;;;;;;;25.07;12.83;;;;;;;-0.86;98.64;101589.56;5093382;28;20517;-75
2022/01/10 04:58:42;;;;;;;28.30;14.93;;;;;;;-0.89;98.51;101590.66;5092592;28;20093;-73
2022/01/10 05:01:09;;;;;;;20.57;13.90;;;;;;;-0.87;98.44;101594.00;5087790;28;20222;-74
2022/01/10 05:03:35;;;;;;;25.90;13.43;;;;;;;-0.88;98.75;101601.06;5072138;28;20033;-75
2022/01/10 05:06:01;;;;;;;24.37;14.80;;;;;;;-0.86;98.65;101602.75;5072265;28;20071;-73
2022/01/10 05:08:27;;;;;;;25.37;13.97;;;;;;;-0.85;98.47;101610.53;5076590;28;20486;-75
2022/01/10 05:10:53;;;;;;;29.93;13.93;;;;;;;-0.85;98.35;101617.59;5091900;28;20040;-74
2022/01/10 05:13:20;;;;;;;23.17;14.23;;;;;;;-0.87;98.37;101617.75;5092099;28;20065;-73
2022/01/10 05:15:49;;;;;;;27.23;14.43;;;;;;;-0.87;98.33;101633.56;5091955;28;20127;-74
2022/01/10 05:18:15;;;;;;;22.03;14.77;;;;;;;-0.82;98.23;101635.78;5092397;28;20035;-73
2022/01/10 05:20:41;;;;;;;30.13;13.93;;;;;;;-0.78;98.27;101643.31;5092719;28;20036;-74
2022/01/10 05:23:07;;;;;;;22.13;15.37;;;;;;;-0.81;97.87;101648.88;5094780;28;20090;-74
2022/01/10 05:25:36;;;;;;;26.67;15.50;;;;;;;-0.82;97.73;101655.09;5096427;28;20040;-74
2022/01/10 05:28:04;;;;;;;26.07;13.90;;;;;;;-0.82;98.05;101657.72;5096395;28;20107;-74
2022/01/10 05:30:29;;;;;;;24.00;13.67;;;;;;;-0.81;97.87;101663.84;5095959;28;20036;-74
2022/01/10 05:32:54;;;;;;;24.40;14.10;;;;;;;-0.82;97.87;101664.81;5096255;28;20080;-74
2022/01/10 05:35:20;;;;;;;23.10;13.80;;;;;;;-0.82;97.57;101670.06;5077769;28;20076;-74
2022/01/10 05:37:45;;;;;;;17.53;13.30;;;;;;;-0.84;97.74;101674.66;5096518;28;20376;-74
2022/01/10 05:40:11;;;;;;;22.87;14.17;;;;;;;-0.86;97.87;101679.25;5095779;28;20093;-73
2022/01/10 05:42:36;;;;;;;19.93;13.53;;;;;;;-0.87;97.79;101683.69;5095833;28;20036;-74
2022/01/10 05:45:02;;;;;;;19.00;14.80;;;;;;;-0.85;97.79;101691.47;5096083;28;20123;-73
2022/01/10 05:47:27;;;;;;;21.20;15.00;;;;;;;-0.84;97.83;101699.25;5096478;28;20036;-73
2022/01/10 05:50:00;;;;;;;22.33;15.33;;;;;;;-0.80;97.75;101697.16;5095844;28;20047;-74
2022/01/10 05:52:26;;;;;;;25.93;15.13;;;;;;;-0.77;97.80;101700.41;5096019;28;20093;-73
2022/01/10 05:54:52;;;;;;;29.03;16.50;;;;;;;-0.75;97.83;101702.91;5095120;28;20118;-74
2022/01/10 05:57:17;;;;;;;26.03;17.03;;;;;;;-0.73;97.99;101699.19;5089975;28;20032;-71
2022/01/10 05:59:42;;;;;;;35.47;17.20;;;;;;;-0.71;97.84;101699.88;5074985;28;20064;-73
2022/01/10 06:02:08;;;;;;;30.50;16.87;;;;;;;-0.68;97.84;101701.41;5073952;28;20086;-73
2022/01/10 06:04:33;;;;;;;38.33;19.00;;;;;;;-0.69;97.82;101713.78;5070423;28;20065;-73
2022/01/10 06:06:58;;;;;;;29.97;17.33;;;;;;;-0.69;98.04;101711.13;5065110;28;20040;-72
2022/01/10 06:09:24;;;;;;;36.77;17.53;;;;;;;-0.70;97.73;101719.16;5077599;28;20440;-74
2022/01/10 06:11:49;;;;;;;34.40;17.90;;;;;;;-0.70;97.83;101735.84;5092552;28;20021;-73
2022/01/10 06:14:15;;;;;;;31.60;18.50;;;;;;;-0.71;97.82;101736.81;5074483;28;20043;-75
2022/01/10 06:16:40;;;;;;;33.47;18.70;;;;;;;-0.73;98.22;101740.56;5092633;28;20036;-74
2022/01/10 06:19:05;;;;;;;54.87;18.43;;;;;;;-0.73;98.21;101754.59;5080447;28;20025;-77
2022/01/10 06:21:31;;;;;;;43.40;18.73;;;;;;;-0.71;98.08;101754.44;5055619;28;20155;-74
2022/01/10 06:23:57;;;;;;;45.43;17.73;;;;;;;-0.72;98.23;101768.59;5062008;28;20036;-74
2022/01/10 06:26:22;;;;;;;37.20;18.97;;;;;;;-0.73;98.22;101770.41;5075086;28;20025;-73
2022/01/10 06:28:47;;;;;;;31.50;18.20;;;;;;;-0.75;98.32;101768.88;5092759;28;20035;-74
2022/01/10 06:31:13;;;;;;;32.93;18.93;;;;;;;-0.74;97.92;101784.56;5076776;28;20136;-74
2022/01/10 06:33:39;;;;;;;30.20;19.73;;;;;;;-0.73;98.09;101782.78;5094444;28;20032;-74
2022/01/10 06:36:08;;;;;;;35.97;20.10;;;;;;;-0.74;98.00;101781.06;5093670;28;20040;-75
2022/01/10 06:38:34;;;;;;;29.43;19.57;;;;;;;-0.70;97.96;101800.97;5094951;28;20031;-73
2022/01/10 06:41:00;;;;;;;29.37;17.83;;;;;;;-0.66;97.85;101803.22;5094548;28;20125;-74
2022/01/10 06:43:25;;;;;;;32.30;18.37;;;;;;;-0.62;97.83;101809.06;5093371;28;20062;-73
2022/01/10 06:45:51;;;;;;;31.50;19.53;;;;;;;-0.61;97.80;101816.03;5094851;28;20519;-75
2022/01/10 06:48:16;;;;;;;27.83;19.23;;;;;;;-0.69;97.66;101818.50;5075257;28;20040;-75
2022/01/10 06:50:46;;;;;;;29.77;19.63;;;;;;;-0.75;98.02;101814.56;5088702;28;20024;-75
2022/01/10 06:53:13;;;;;;;38.97;20.87;;;;;;;-0.70;97.70;101830.00;5090741;28;20052;-73
2022/01/10 06:55:38;;;;;;;35.17;20.83;;;;;;;-0.77;98.19;101827.06;5085498;28;20562;-75
2022/01/10 06:58:04;;;;;;;31.47;21.03;;;;;;;-0.76;98.14;101847.19;5085896;28;20051;-74
2022/01/10 07:00:29;;;;;;;36.10;20.90;;;;;;;-0.74;98.08;101842.63;5082637;28;20103;-74
2022/01/10 07:02:55;;;;;;;36.83;20.87;;;;;;;-0.72;98.01;101866.22;5090532;28;20035;-74
2022/01/10 07:05:20;;;;;;;51.30;21.30;;;;;;;-0.70;97.65;101866.94;5090479;28;20059;-73
2022/01/10 07:07:45;;;;;;;41.37;20.10;;;;;;;-0.72;98.01;101874.13;5083619;28;20090;-73
2022/01/10 07:10:11;;;;;;;35.57;21.17;;;;;;;-0.73;97.56;101877.75;5069272;28;20048;-74
2022/01/10 07:12:36;;;;;;;32.20;19.37;;;;;;;-0.72;98.11;101882.06;5091683;28;20036;-75
2022/01/10 07:15:02;;;;;;;36.40;21.63;;;;;;;-0.74;98.16;101883.97;5069913;28;20036;-75
2022/01/10 07:17:29;;;;;;;45.53;22.73;;;;;;;-0.75;97.92;101884.97;5092902;28;20031;-75
2022/01/10 07:19:55;;;;;;;35.47;20.57;;;;;;;-0.76;98.32;101889.41;5090012;28;20532;-72
2022/01/10 07:22:20;;;;;;;34.73;19.57;;;;;;;-0.74;97.97;101898.03;5089842;28;20032;-74
2022/01/10 07:24:46;;;;;;;39.43;20.60;;;;;;;-0.75;97.98;101900.78;5090864;28;20031;-74
2022/01/10 07:27:11;;;;;;;50.07;21.40;;;;;;;-0.74;97.80;101905.09;5090562;28;20032;-75
2022/01/10 07:29:36;;;;;;;31.43;20.70;;;;;;;-0.70;97.63;101912.63;5091130;28;20032;-74
2022/01/10 07:32:02;;;;;;;39.53;21.83;;;;;;;-0.70;98.14;101920.56;5091360;28;20044;-73
2022/01/10 07:34:28;;;;;;;34.80;19.97;;;;;;;-0.70;97.96;101912.63;5072870;28;20074;-75
2022/01/10 07:36:53;;;;;;;41.17;21.40;;;;;;;-0.69;97.72;101921.41;5072710;28;20028;-75
2022/01/10 07:39:18;;;;;;;38.50;20.67;;;;;;;-0.68;97.85;101931.81;5090561;28;20032;-75
2022/01/10 07:41:44;;;;;;;33.10;20.80;;;;;;;-0.66;97.86;101943.09;5090442;28;20047;-76
2022/01/10 07:44:10;;;;;;;38.67;22.00;;;;;;;-0.64;97.94;101945.59;5089962;28;20387;-75
2022/01/10 07:46:35;;;;;;;30.83;19.83;;;;;;;-0.64;97.64;101956.16;5088975;28;20047;-76
2022/01/10 07:49:02;;;;;;;34.23;19.07;;;;;;;-0.65;97.63;101963.25;5088713;28;20036;-75
2022/01/10 07:51:27;;;;;;;37.80;19.43;;;;;;;-0.64;98.07;101966.72;5086499;28;20040;-77
2022/01/10 07:53:53;;;;;;;31.33;19.63;;;;;;;-0.63;97.58;101974.50;5107330;28;20035;-76
2022/01/10 07:56:19;;;;;;;28.67;19.30;;;;;;;-0.63;97.66;101973.69;5113951;28;20124;-76
2022/01/10 07:58:50;;;;;;;40.53;21.83;;;;;;;-0.61;97.80;101974.41;5113384;28;20039;-76
2022/01/10 08:01:16;;;;;;;32.85;20.35;;;;;;;-0.61;97.84;101979.69;5094729;28;20441;-77
2022/01/10 08:03:41;;;;;;;35.50;21.53;;;;;;;-0.61;97.65;101977.03;5067171;28;20040;-75
2022/01/10 08:06:06;;;;;;;34.37;20.10;;;;;;;-0.60;97.62;101976.06;5072305;28;20101;-75
2022/01/10 08:08:33;;;;;;;34.83;20.00;;;;;;;-0.60;97.84;101991.91;5054708;28;20151;-76
2022/01/10 08:10:59;;;;;;;31.40;20.07;;;;;;;-0.57;97.66;101986.38;5050147;28;20028;-76
2022/01/10 08:13:24;;;;;;;32.70;20.00;;;;;;;-0.65;98.14;101994.09;5071535;28;20055;-75
2022/01/10 08:15:50;;;;;;;33.50;19.77;;;;;;;-0.63;97.75;101992.16;5072889;28;20029;-76
2022/01/10 08:18:17;;;;;;;27.07;18.77;;;;;;;-0.63;97.87;101997.44;5071601;28;20040;-76
2022/01/10 08:20:42;;;;;;;26.87;18.33;;;;;;;-0.64;98.10;101999.22;5070446;28;20040;-76
2022/01/10 08:23:08;;;;;;;29.83;19.97;;;;;;;-0.61;97.80;102011.34;5070415;28;21359;-78
2022/01/10 08:25:33;;;;;;;30.43;19.07;;;;;;;-0.60;97.97;102018.28;5086044;28;20035;-77
2022/01/10 08:27:59;;;;;;;28.23;19.33;;;;;;;-0.62;97.72;102025.50;5080965;28;20446;-76
2022/01/10 08:30:24;;;;;;;27.83;18.97;;;;;;;-0.61;98.33;102024.53;5084866;28;20049;-78
2022/01/10 08:32:50;;;;;;;30.73;18.77;;;;;;;-0.62;98.03;102025.50;5052040;28;20048;-77
2022/01/10 08:35:17;;;;;;;27.20;18.50;;;;;;;-0.61;98.30;102029.81;5084542;28;20543;-77
2022/01/10 08:37:43;;;;;;;28.00;18.50;;;;;;;-0.61;98.26;102037.75;5091104;28;20152;-75
2022/01/10 08:40:09;;;;;;;25.47;18.40;;;;;;;-0.53;97.92;102045.88;5072844;28;20495;-76
2022/01/10 08:42:34;;;;;;;27.70;18.77;;;;;;;-0.50;98.15;102058.81;5097853;28;20068;-76
2022/01/10 08:44:59;;;;;;;30.90;19.20;;;;;;;-0.49;97.68;102066.59;5100508;28;20027;-77
2022/01/10 08:47:27;;;;;;;32.10;19.23;;;;;;;-0.48;98.00;102063.00;5099575;28;20042;-75
2022/01/10 08:49:52;;;;;;;30.83;19.53;;;;;;;-0.45;98.03;102062.75;5098905;28;20092;-75
2022/01/10 08:52:18;;;;;;;52.33;20.17;;;;;;;-0.42;98.18;102067.81;5101422;28;20044;-76
2022/01/10 08:54:43;;;;;;;38.07;19.60;;;;;;;-0.37;98.33;102067.41;5093361;28;20491;-76
2022/01/10 08:57:09;;;;;;;39.27;19.97;;;;;;;-0.34;98.25;102069.81;5098925;28;20036;-76
2022/01/10 08:59:34;;;;;;;46.90;19.93;;;;;;;-0.33;98.27;102067.03;5102161;28;20126;-75
2022/01/10 09:02:00;;;;;;;44.83;21.30;;;;;;;-0.30;98.21;102082.66;5096307;28;20032;-75
2022/01/10 09:04:26;;;;;;;34.40;20.37;;;;;;;-0.31;98.19;102094.16;5106675;28;20032;-75
2022/01/10 09:06:54;;;;;;;36.87;20.13;;;;;;;-0.25;98.31;102104.22;5110808;28;20020;-75
2022/01/10 09:09:21;;;;;;;33.87;20.93;;;;;;;-0.23;98.08;102099.66;5092187;28;20036;-74
2022/01/10 09:11:47;;;;;;;29.67;20.97;;;;;;;-0.18;98.39;102097.47;5090816;28;20093;-77
2022/01/10 09:14:13;;;;;;;38.40;22.57;;;;;;;-0.15;98.13;102107.81;5091173;28;20095;-75
2022/01/10 09:16:40;;;;;;;33.53;22.00;;;;;;;-0.10;97.93;102115.38;5056125;28;20098;-76
2022/01/10 09:19:05;;;;;;;30.37;21.50;;;;;;;-0.07;97.46;102117.75;5089867;28;20081;-76
2022/01/10 09:21:31;;;;;;;35.40;22.47;;;;;;;-0.05;97.65;102123.75;5074166;28;20514;-76
2022/01/10 09:23:57;;;;;;;32.07;22.03;;;;;;;-0.01;98.17;102117.25;5057352;28;20028;-76
2022/01/10 09:26:23;;;;;;;38.53;22.77;;;;;;;0.02;97.78;102132.81;5096993;28;20027;-77
2022/01/10 09:28:48;;;;;;;36.83;23.40;;;;;;;0.05;97.67;102135.22;5092080;28;20048;-77
2022/01/10 09:31:14;;;;;;;39.60;23.63;;;;;;;0.10;97.57;102138.31;5077871;28;20047;-77
2022/01/10 09:33:41;;;;;;;38.10;23.47;;;;;;;0.15;97.88;102143.25;5088901;28;20054;-76
2022/01/10 09:36:07;;;;;;;29.87;23.33;;;;;;;0.17;98.13;102141.31;5061726;28;20032;-77
2022/01/10 09:38:33;;;;;;;43.00;25.03;;;;;;;0.19;97.97;102137.59;5082540;28;20024;-76
2022/01/10 09:40:59;;;;;;;32.07;24.00;;;;;;;0.18;97.81;102143.81;5100267;28;20047;-77
2022/01/10 09:43:25;;;;;;;34.60;24.43;;;;;;;0.24;97.77;102153.88;5060902;28;20056;-77
2022/01/10 09:45:56;;;;;;;35.30;25.97;;;;;;;0.35;98.07;102155.66;5075922;28;20064;-76
2022/01/10 09:48:22;;;;;;;35.05;26.15;;;;;;;0.37;97.52;102159.88;5086646;28;20024;-77
2022/01/10 09:50:48;;;;;;;42.97;26.43;;;;;;;0.38;97.47;102161.53;5096421;28;20081;-77
2022/01/10 09:53:17;;;;;;;36.80;26.00;;;;;;;0.40;97.54;102172.81;5100898;28;20478;-76
2022/01/10 09:55:43;;;;;;;38.20;28.10;;;;;;;0.47;97.85;102173.97;5100808;28;20064;-79
2022/01/10 09:58:09;;;;;;;41.22;29.20;;;;;;;0.53;98.22;102175.28;5066782;28;20041;-78
2022/01/10 10:00:35;;;;;;;46.92;28.00;;;;;;;0.51;97.52;102185.97;5082990;28;20097;-78
2022/01/10 10:03:00;;;;;;;44.50;28.53;;;;;;;0.53;98.12;102184.03;5088503;28;20028;-77
2022/01/10 10:05:25;;;;;;;43.37;28.93;;;;;;;0.58;97.84;102187.16;5073846;28;20031;-77
2022/01/10 10:07:52;;;;;;;44.27;28.80;;;;;;;0.61;98.21;102200.09;5096524;28;20123;-78
2022/01/10 10:10:18;;;;;;;53.75;31.20;;;;;;;0.67;97.71;102204.88;5070284;28;20403;-77
2022/01/10 10:12:48;;;;;;;50.40;31.70;;;;;;;0.68;97.86;102201.28;5072130;28;20024;-78
2022/01/10 10:15:17;;;;;;;46.20;30.63;;;;;;;0.69;98.07;102208.25;5099135;28;20039;-78
2022/01/10 10:17:44;;;;;;;47.08;30.38;;;;;;;0.76;97.47;102203.28;5104613;28;20408;-78
2022/01/10 10:20:12;;;;;;;46.55;31.70;;;;;;;0.83;97.99;102217.66;5083928;28;20372;-78
2022/01/10 10:22:43;;;;;;;51.53;33.20;;;;;;;0.90;97.98;102221.50;5103095;28;20126;-79
2022/01/10 10:25:10;;;;;;;42.30;31.70;;;;;;;0.95;97.67;102223.72;5092222;28;20024;-77
2022/01/10 10:27:42;;;;;;;56.30;33.25;;;;;;;1.04;97.90;102238.84;5060529;28;20544;-78
2022/01/10 10:30:12;;;;;;;54.25;33.90;;;;;;;1.11;97.94;102246.16;5084739;28;20036;-77
2022/01/10 10:32:38;;;;;;;71.80;36.55;;;;;;;1.16;98.38;102249.22;5103419;28;20050;-77
2022/01/10 10:35:06;;;;;;;52.67;36.40;;;;;;;1.20;97.68;102249.84;5099270;28;20047;-76
2022/01/10 10:37:36;;;;;;;59.25;34.90;;;;;;;1.25;98.24;102250.25;5095946;28;20144;-77
2022/01/10 10:40:03;;;;;;;51.17;33.33;;;;;;;1.35;97.83;102252.00;5099592;28;20044;-77
2022/01/10 10:42:29;;;;;;;52.97;36.45;;;;;;;1.38;97.75;102264.13;5087809;28;20086;-76
2022/01/10 10:44:56;;;;;;;55.75;36.13;;;;;;;1.35;98.04;102265.25;5075838;28;20115;-76
2022/01/10 10:47:26;;;;;;;57.38;38.70;;;;;;;1.46;98.10;102264.31;5077752;28;20132;-77
2022/01/10 10:49:56;;;;;;;57.95;36.88;;;;;;;1.51;98.06;102265.59;5073275;28;20029;-76
2022/01/10 10:52:22;;;;;;;54.88;36.47;;;;;;;1.62;97.85;102264.69;5078882;28;20035;-76
2022/01/10 10:54:47;;;;;;;64.57;39.30;;;;;;;1.67;98.47;102265.94;5075805;28;20037;-76
2022/01/10 10:57:14;;;;;;;56.85;39.22;;;;;;;1.74;98.03;102259.16;5071636;28;20036;-76
2022/01/10 10:59:43;;;;;;;67.25;39.92;;;;;;;1.82;98.14;102263.78;5071209;28;20095;-76
2022/01/10 11:02:10;;;;;;;68.95;40.28;;;;;;;1.90;98.03;102271.91;5092226;28;20048;-76
2022/01/10 11:04:35;;;;;;;65.70;40.88;;;;;;;1.93;98.23;102273.47;5096158;28;20063;-75
2022/01/10 11:07:02;;;;;;;62.28;39.58;;;;;;;2.00;98.44;102272.78;5092627;28;20107;-75
2022/01/10 11:09:28;;;;;;;62.10;39.50;;;;;;;2.08;98.41;102272.97;5092471;28;20036;-76
2022/01/10 11:11:53;;;;;;;64.15;38.47;;;;;;;2.11;97.83;102283.28;5074295;28;20532;-75
2022/01/10 11:14:22;;;;;;;70.63;40.08;;;;;;;2.15;97.85;102282.03;5093141;28;20027;-77
2022/01/10 11:16:50;;;;;;;64.05;40.83;;;;;;;2.20;98.07;102290.41;5092348;28;20491;-77
2022/01/10 11:19:25;;;;;;;80.53;43.10;;;;;;;2.22;97.93;102296.41;5091547;28;20036;-75